Terminal Aerodrome Forecast
Issued by NWS

Home | Current Version | Previous Version | Text Only | Print | Product List | Glossary On
Versions: 1 2 3 4 5 6 7 8 9 10 11 12
000
FTUS45 KTFX 221720
TAFLWT
TAF
KLWT 221720Z 2218/2318 12010KT P6SM SCT060
     FM222200 13009KT P6SM SCT060 BKN120
     FM230000 09007KT P6SM VCTS SCT080CB BKN120
     FM230300 07008KT P6SM -SHRA SCT060 BKN100
     FM230900 VRB04KT P6SM BKN090 PROB30 2314/2318 -SHRA BKN060=

USA.gov is the U.S. government's official web portal to all federal, state and local government web resources and services.